sensor_id;sensor_type;location;lat;lon;timestamp;temperature;humidity
1476;DHT22;730;48.870;12.542;2023-11-18T00:01:53;4.60;1.00
1476;DHT22;730;48.870;12.542;2023-11-18T00:04:19;4.60;1.00
1476;DHT22;730;48.870;12.542;2023-11-18T00:06:45;4.60;1.00
1476;DHT22;730;48.870;12.542;2023-11-18T00:09:14;4.70;1.00
1476;DHT22;730;48.870;12.542;2023-11-18T00:11:41;4.70;1.00
1476;DHT22;730;48.870;12.542;2023-11-18T00:14:08;4.70;1.00
1476;DHT22;730;48.870;12.542;2023-11-18T00:16:34;4.70;1.00
1476;DHT22;730;48.870;12.542;2023-11-18T00:19:00;4.70;1.00
1476;DHT22;730;48.870;12.542;2023-11-18T00:21:27;4.80;1.00
1476;DHT22;730;48.870;12.542;2023-11-18T00:23:53;4.80;1.00
1476;DHT22;730;48.870;12.542;2023-11-18T00:26:22;4.80;1.00
1476;DHT22;730;48.870;12.542;2023-11-18T00:28:47;4.80;1.00
1476;DHT22;730;48.870;12.542;2023-11-18T00:31:14;4.80;1.00
1476;DHT22;730;48.870;12.542;2023-11-18T00:33:40;4.90;1.00
1476;DHT22;730;48.870;12.542;2023-11-18T00:36:07;4.90;1.00
1476;DHT22;730;48.870;12.542;2023-11-18T00:38:33;4.90;1.00
1476;DHT22;730;48.870;12.542;2023-11-18T00:40:59;5.00;1.00
1476;DHT22;730;48.870;12.542;2023-11-18T00:43:26;5.00;1.00
1476;DHT22;730;48.870;12.542;2023-11-18T00:45:52;5.00;1.00
1476;DHT22;730;48.870;12.542;2023-11-18T00:48:18;5.00;1.00
1476;DHT22;730;48.870;12.542;2023-11-18T00:50:44;5.00;1.00
1476;DHT22;730;48.870;12.542;2023-11-18T00:53:10;5.10;1.00
1476;DHT22;730;48.870;12.542;2023-11-18T00:55:36;5.10;1.00
1476;DHT22;730;48.870;12.542;2023-11-18T00:58:02;5.10;1.00
1476;DHT22;730;48.870;12.542;2023-11-18T01:00:28;5.00;1.00
1476;DHT22;730;48.870;12.542;2023-11-18T01:02:58;5.10;1.00
1476;DHT22;730;48.870;12.542;2023-11-18T01:05:27;5.00;1.00
1476;DHT22;730;48.870;12.542;2023-11-18T01:07:53;5.00;1.00
1476;DHT22;730;48.870;12.542;2023-11-18T01:10:19;5.00;1.00
1476;DHT22;730;48.870;12.542;2023-11-18T01:12:45;5.00;1.00
1476;DHT22;730;48.870;12.542;2023-11-18T01:15:12;5.00;1.00
1476;DHT22;730;48.870;12.542;2023-11-18T01:17:38;5.10;1.00
1476;DHT22;730;48.870;12.542;2023-11-18T01:20:05;5.10;1.00
1476;DHT22;730;48.870;12.542;2023-11-18T01:22:39;5.10;1.00
1476;DHT22;730;48.870;12.542;2023-11-18T01:25:07;5.10;1.00
1476;DHT22;730;48.870;12.542;2023-11-18T01:27:34;5.10;1.00
1476;DHT22;730;48.870;12.542;2023-11-18T01:30:01;5.10;1.00
1476;DHT22;730;48.870;12.542;2023-11-18T01:32:27;5.10;1.00
1476;DHT22;730;48.870;12.542;2023-11-18T01:34:55;5.10;1.00
1476;DHT22;730;48.870;12.542;2023-11-18T01:37:26;5.10;1.00
1476;DHT22;730;48.870;12.542;2023-11-18T01:39:52;5.10;1.00
1476;DHT22;730;48.870;12.542;2023-11-18T01:42:18;5.10;1.00
1476;DHT22;730;48.870;12.542;2023-11-18T01:44:44;5.10;1.00
1476;DHT22;730;48.870;12.542;2023-11-18T01:47:10;5.10;1.00
1476;DHT22;730;48.870;12.542;2023-11-18T01:49:38;5.10;1.00
1476;DHT22;730;48.870;12.542;2023-11-18T01:52:06;5.10;1.00
1476;DHT22;730;48.870;12.542;2023-11-18T01:54:36;5.10;1.00
1476;DHT22;730;48.870;12.542;2023-11-18T01:57:04;5.10;1.00
1476;DHT22;730;48.870;12.542;2023-11-18T01:59:33;5.10;1.00
1476;DHT22;730;48.870;12.542;2023-11-18T02:02:00;5.10;1.00
1476;DHT22;730;48.870;12.542;2023-11-18T02:04:27;5.10;1.00
1476;DHT22;730;48.870;12.542;2023-11-18T02:06:54;5.00;1.00
1476;DHT22;730;48.870;12.542;2023-11-18T02:09:21;5.00;1.00
1476;DHT22;730;48.870;12.542;2023-11-18T02:14:43;5.00;1.00
1476;DHT22;730;48.870;12.542;2023-11-18T02:17:14;5.00;1.00
1476;DHT22;730;48.870;12.542;2023-11-18T02:19:40;5.00;1.00
1476;DHT22;730;48.870;12.542;2023-11-18T02:22:07;5.00;1.00
1476;DHT22;730;48.870;12.542;2023-11-18T02:24:33;5.00;1.00
1476;DHT22;730;48.870;12.542;2023-11-18T02:27:04;5.00;1.00
1476;DHT22;730;48.870;12.542;2023-11-18T02:29:36;5.00;1.00
1476;DHT22;730;48.870;12.542;2023-11-18T02:32:28;5.00;1.00
1476;DHT22;730;48.870;12.542;2023-11-18T02:35:21;5.00;1.00
1476;DHT22;730;48.870;12.542;2023-11-18T02:37:50;5.00;1.00
1476;DHT22;730;48.870;12.542;2023-11-18T02:40:20;5.00;1.00
1476;DHT22;730;48.870;12.542;2023-11-18T02:42:49;5.00;1.00
1476;DHT22;730;48.870;12.542;2023-11-18T02:45:19;5.00;1.00
1476;DHT22;730;48.870;12.542;2023-11-18T02:47:46;5.00;1.00
1476;DHT22;730;48.870;12.542;2023-11-18T02:50:14;5.00;1.00
1476;DHT22;730;48.870;12.542;2023-11-18T02:52:41;5.00;1.00
1476;DHT22;730;48.870;12.542;2023-11-18T02:55:08;5.00;1.00
1476;DHT22;730;48.870;12.542;2023-11-18T02:57:35;5.00;1.00
1476;DHT22;730;48.870;12.542;2023-11-18T03:00:01;4.90;1.00
1476;DHT22;730;48.870;12.542;2023-11-18T03:02:30;5.00;1.00
1476;DHT22;730;48.870;12.542;2023-11-18T03:04:57;5.00;1.00
1476;DHT22;730;48.870;12.542;2023-11-18T03:07:23;4.90;1.00
1476;DHT22;730;48.870;12.542;2023-11-18T03:09:49;5.00;1.00
1476;DHT22;730;48.870;12.542;2023-11-18T03:12:15;5.00;1.00
1476;DHT22;730;48.870;12.542;2023-11-18T03:14:42;4.90;1.00
1476;DHT22;730;48.870;12.542;2023-11-18T03:17:08;4.90;1.00
1476;DHT22;730;48.870;12.542;2023-11-18T03:19:35;4.90;1.00
1476;DHT22;730;48.870;12.542;2023-11-18T03:24:34;4.90;1.00
1476;DHT22;730;48.870;12.542;2023-11-18T03:27:00;4.90;1.00
1476;DHT22;730;48.870;12.542;2023-11-18T03:29:26;4.90;1.00
1476;DHT22;730;48.870;12.542;2023-11-18T03:31:52;4.90;1.00
1476;DHT22;730;48.870;12.542;2023-11-18T03:34:19;4.90;1.00
1476;DHT22;730;48.870;12.542;2023-11-18T03:36:48;4.90;1.00
1476;DHT22;730;48.870;12.542;2023-11-18T03:39:14;4.90;1.00
1476;DHT22;730;48.870;12.542;2023-11-18T03:41:41;4.90;1.00
1476;DHT22;730;48.870;12.542;2023-11-18T03:44:11;4.90;1.00
1476;DHT22;730;48.870;12.542;2023-11-18T03:46:37;4.90;1.00
1476;DHT22;730;48.870;12.542;2023-11-18T03:49:03;4.90;1.00
1476;DHT22;730;48.870;12.542;2023-11-18T03:51:29;5.00;1.00
1476;DHT22;730;48.870;12.542;2023-11-18T03:53:55;5.00;1.00
1476;DHT22;730;48.870;12.542;2023-11-18T03:56:22;5.00;1.00
1476;DHT22;730;48.870;12.542;2023-11-18T03:58:48;5.00;1.00
1476;DHT22;730;48.870;12.542;2023-11-18T04:01:24;5.00;1.00
1476;DHT22;730;48.870;12.542;2023-11-18T04:03:53;5.00;1.00
1476;DHT22;730;48.870;12.542;2023-11-18T04:06:21;5.00;1.00
1476;DHT22;730;48.870;12.542;2023-11-18T04:08:48;4.90;1.00
1476;DHT22;730;48.870;12.542;2023-11-18T04:11:15;4.90;1.00
1476;DHT22;730;48.870;12.542;2023-11-18T04:13:41;4.90;1.00
1476;DHT22;730;48.870;12.542;2023-11-18T04:16:13;4.80;1.00
1476;DHT22;730;48.870;12.542;2023-11-18T04:18:44;4.80;1.00
1476;DHT22;730;48.870;12.542;2023-11-18T04:21:11;4.90;1.00
1476;DHT22;730;48.870;12.542;2023-11-18T04:23:38;4.90;1.00
1476;DHT22;730;48.870;12.542;2023-11-18T04:26:05;4.90;1.00
1476;DHT22;730;48.870;12.542;2023-11-18T04:28:31;4.90;1.00
1476;DHT22;730;48.870;12.542;2023-11-18T04:30:57;4.90;1.00
1476;DHT22;730;48.870;12.542;2023-11-18T04:33:23;4.90;1.00
1476;DHT22;730;48.870;12.542;2023-11-18T04:35:54;4.90;1.00
1476;DHT22;730;48.870;12.542;2023-11-18T04:38:23;4.90;1.00
1476;DHT22;730;48.870;12.542;2023-11-18T04:40:49;4.90;1.00
1476;DHT22;730;48.870;12.542;2023-11-18T04:43:15;4.90;1.00
1476;DHT22;730;48.870;12.542;2023-11-18T04:45:44;4.90;1.00
1476;DHT22;730;48.870;12.542;2023-11-18T04:48:10;4.80;1.00
1476;DHT22;730;48.870;12.542;2023-11-18T04:50:36;4.80;1.00
1476;DHT22;730;48.870;12.542;2023-11-18T04:53:02;4.70;1.00
1476;DHT22;730;48.870;12.542;2023-11-18T04:55:29;4.60;1.00
1476;DHT22;730;48.870;12.542;2023-11-18T04:57:55;4.60;1.00
1476;DHT22;730;48.870;12.542;2023-11-18T05:00:21;4.60;1.00
1476;DHT22;730;48.870;12.542;2023-11-18T05:02:48;4.50;1.00
1476;DHT22;730;48.870;12.542;2023-11-18T05:05:17;4.50;1.00
1476;DHT22;730;48.870;12.542;2023-11-18T05:07:47;4.40;1.00
1476;DHT22;730;48.870;12.542;2023-11-18T05:10:13;4.30;1.00
1476;DHT22;730;48.870;12.542;2023-11-18T05:12:40;4.30;1.00
1476;DHT22;730;48.870;12.542;2023-11-18T05:15:07;4.30;1.00
1476;DHT22;730;48.870;12.542;2023-11-18T05:17:36;4.30;1.00
1476;DHT22;730;48.870;12.542;2023-11-18T05:20:03;4.30;1.00
1476;DHT22;730;48.870;12.542;2023-11-18T05:22:30;4.20;1.00
1476;DHT22;730;48.870;12.542;2023-11-18T05:24:57;4.20;1.00
1476;DHT22;730;48.870;12.542;2023-11-18T05:27:23;4.20;1.00
1476;DHT22;730;48.870;12.542;2023-11-18T05:29:49;4.20;1.00
1476;DHT22;730;48.870;12.542;2023-11-18T05:32:22;4.10;1.00
1476;DHT22;730;48.870;12.542;2023-11-18T05:34:50;4.10;1.00
1476;DHT22;730;48.870;12.542;2023-11-18T05:37:20;4.10;1.00
1476;DHT22;730;48.870;12.542;2023-11-18T05:39:46;4.10;1.00
1476;DHT22;730;48.870;12.542;2023-11-18T05:42:12;4.00;1.00
1476;DHT22;730;48.870;12.542;2023-11-18T05:44:38;3.90;1.00
1476;DHT22;730;48.870;12.542;2023-11-18T05:47:05;3.90;1.00
1476;DHT22;730;48.870;12.542;2023-11-18T05:49:34;3.80;1.00
1476;DHT22;730;48.870;12.542;2023-11-18T05:52:00;3.80;1.00
1476;DHT22;730;48.870;12.542;2023-11-18T05:54:26;3.80;1.00
1476;DHT22;730;48.870;12.542;2023-11-18T05:56:53;3.70;1.00
1476;DHT22;730;48.870;12.542;2023-11-18T05:59:19;3.60;1.00
1476;DHT22;730;48.870;12.542;2023-11-18T06:01:45;3.50;1.00
1476;DHT22;730;48.870;12.542;2023-11-18T06:04:13;3.50;1.00
1476;DHT22;730;48.870;12.542;2023-11-18T06:06:39;3.50;1.00
1476;DHT22;730;48.870;12.542;2023-11-18T06:09:05;3.50;1.00
1476;DHT22;730;48.870;12.542;2023-11-18T06:11:35;3.40;1.00
1476;DHT22;730;48.870;12.542;2023-11-18T06:14:06;3.40;1.00
1476;DHT22;730;48.870;12.542;2023-11-18T06:16:34;3.40;1.00
1476;DHT22;730;48.870;12.542;2023-11-18T06:19:02;3.40;1.00
1476;DHT22;730;48.870;12.542;2023-11-18T06:21:31;3.40;1.00
1476;DHT22;730;48.870;12.542;2023-11-18T06:23:58;3.40;1.00
1476;DHT22;730;48.870;12.542;2023-11-18T06:26:25;3.40;1.00
1476;DHT22;730;48.870;12.542;2023-11-18T06:28:53;3.30;1.00
1476;DHT22;730;48.870;12.542;2023-11-18T06:31:20;3.30;1.00
1476;DHT22;730;48.870;12.542;2023-11-18T06:33:47;3.30;1.00
1476;DHT22;730;48.870;12.542;2023-11-18T06:38:40;3.30;1.00
1476;DHT22;730;48.870;12.542;2023-11-18T06:41:07;3.30;1.00
1476;DHT22;730;48.870;12.542;2023-11-18T06:43:41;3.30;1.00
1476;DHT22;730;48.870;12.542;2023-11-18T06:46:29;3.30;1.00
1476;DHT22;730;48.870;12.542;2023-11-18T06:48:59;3.40;1.00
1476;DHT22;730;48.870;12.542;2023-11-18T06:51:31;3.30;1.00
1476;DHT22;730;48.870;12.542;2023-11-18T06:53:58;3.40;1.00
1476;DHT22;730;48.870;12.542;2023-11-18T06:56:25;3.40;1.00
1476;DHT22;730;48.870;12.542;2023-11-18T06:58:51;3.40;1.00
1476;DHT22;730;48.870;12.542;2023-11-18T07:01:18;3.50;1.00
1476;DHT22;730;48.870;12.542;2023-11-18T07:03:45;3.50;1.00
1476;DHT22;730;48.870;12.542;2023-11-18T07:06:17;3.50;1.00
1476;DHT22;730;48.870;12.542;2023-11-18T07:08:48;3.50;1.00
1476;DHT22;730;48.870;12.542;2023-11-18T07:11:15;3.60;1.00
1476;DHT22;730;48.870;12.542;2023-11-18T07:13:43;3.60;1.00
1476;DHT22;730;48.870;12.542;2023-11-18T07:16:09;3.60;1.00
1476;DHT22;730;48.870;12.542;2023-11-18T07:18:38;3.70;1.00
1476;DHT22;730;48.870;12.542;2023-11-18T07:21:04;3.70;1.00
1476;DHT22;730;48.870;12.542;2023-11-18T07:23:33;3.70;1.00
1476;DHT22;730;48.870;12.542;2023-11-18T07:26:00;3.70;1.00
1476;DHT22;730;48.870;12.542;2023-11-18T07:28:26;3.70;1.00
1476;DHT22;730;48.870;12.542;2023-11-18T07:30:53;3.80;1.00
1476;DHT22;730;48.870;12.542;2023-11-18T07:33:20;3.80;1.00
1476;DHT22;730;48.870;12.542;2023-11-18T07:35:47;3.80;1.00
1476;DHT22;730;48.870;12.542;2023-11-18T07:38:17;3.80;1.00
1476;DHT22;730;48.870;12.542;2023-11-18T07:40:46;3.80;1.00
1476;DHT22;730;48.870;12.542;2023-11-18T07:43:12;3.80;1.00
1476;DHT22;730;48.870;12.542;2023-11-18T07:45:39;3.90;1.00
1476;DHT22;730;48.870;12.542;2023-11-18T07:48:07;3.90;1.00
1476;DHT22;730;48.870;12.542;2023-11-18T07:50:34;4.00;1.00
1476;DHT22;730;48.870;12.542;2023-11-18T07:53:01;4.10;1.00
1476;DHT22;730;48.870;12.542;2023-11-18T07:55:28;4.20;1.00
1476;DHT22;730;48.870;12.542;2023-11-18T07:57:55;4.30;1.00
1476;DHT22;730;48.870;12.542;2023-11-18T08:00:21;4.30;1.00
1476;DHT22;730;48.870;12.542;2023-11-18T08:02:49;4.40;1.00
1476;DHT22;730;48.870;12.542;2023-11-18T08:05:15;4.50;1.00
1476;DHT22;730;48.870;12.542;2023-11-18T08:07:42;4.50;1.00
1476;DHT22;730;48.870;12.542;2023-11-18T08:10:10;4.60;1.00
1476;DHT22;730;48.870;12.542;2023-11-18T08:12:39;4.70;1.00
1476;DHT22;730;48.870;12.542;2023-11-18T08:15:09;4.80;1.00
1476;DHT22;730;48.870;12.542;2023-11-18T08:17:35;4.90;1.00
1476;DHT22;730;48.870;12.542;2023-11-18T08:20:02;5.00;1.00
1476;DHT22;730;48.870;12.542;2023-11-18T08:22:43;5.10;1.00
1476;DHT22;730;48.870;12.542;2023-11-18T08:25:13;5.20;1.00
1476;DHT22;730;48.870;12.542;2023-11-18T08:27:40;5.30;1.00
1476;DHT22;730;48.870;12.542;2023-11-18T08:30:08;5.40;1.00
1476;DHT22;730;48.870;12.542;2023-11-18T08:32:42;5.50;1.00
1476;DHT22;730;48.870;12.542;2023-11-18T08:35:14;5.60;1.00
1476;DHT22;730;48.870;12.542;2023-11-18T08:37:41;5.80;1.00
1476;DHT22;730;48.870;12.542;2023-11-18T08:40:12;6.20;1.00
1476;DHT22;730;48.870;12.542;2023-11-18T08:42:45;6.40;1.00
1476;DHT22;730;48.870;12.542;2023-11-18T08:45:23;6.50;1.00
1476;DHT22;730;48.870;12.542;2023-11-18T08:47:56;6.80;1.00
1476;DHT22;730;48.870;12.542;2023-11-18T08:50:23;7.00;1.00
1476;DHT22;730;48.870;12.542;2023-11-18T08:52:55;7.30;1.00
1476;DHT22;730;48.870;12.542;2023-11-18T08:55:27;7.50;1.00
1476;DHT22;730;48.870;12.542;2023-11-18T08:58:09;7.70;1.00
1476;DHT22;730;48.870;12.542;2023-11-18T09:00:52;8.00;1.00
1476;DHT22;730;48.870;12.542;2023-11-18T09:03:23;8.20;1.00
1476;DHT22;730;48.870;12.542;2023-11-18T09:05:57;8.40;1.00
1476;DHT22;730;48.870;12.542;2023-11-18T09:08:30;8.60;1.00
1476;DHT22;730;48.870;12.542;2023-11-18T09:10:58;8.90;1.00
1476;DHT22;730;48.870;12.542;2023-11-18T09:13:26;9.10;1.00
1476;DHT22;730;48.870;12.542;2023-11-18T09:15:59;9.30;1.00
1476;DHT22;730;48.870;12.542;2023-11-18T09:18:29;9.40;1.00
1476;DHT22;730;48.870;12.542;2023-11-18T09:20:56;9.50;1.00
1476;DHT22;730;48.870;12.542;2023-11-18T09:23:27;9.70;1.00
1476;DHT22;730;48.870;12.542;2023-11-18T09:25:54;9.80;1.00
1476;DHT22;730;48.870;12.542;2023-11-18T09:28:21;9.90;1.00
1476;DHT22;730;48.870;12.542;2023-11-18T09:30:48;10.00;1.00
1476;DHT22;730;48.870;12.542;2023-11-18T09:33:20;10.00;1.00
1476;DHT22;730;48.870;12.542;2023-11-18T09:35:55;10.00;1.00
1476;DHT22;730;48.870;12.542;2023-11-18T09:38:31;10.10;1.00
1476;DHT22;730;48.870;12.542;2023-11-18T09:40:59;10.10;1.00
1476;DHT22;730;48.870;12.542;2023-11-18T09:43:33;10.10;1.00
1476;DHT22;730;48.870;12.542;2023-11-18T09:46:27;10.10;1.00
1476;DHT22;730;48.870;12.542;2023-11-18T09:49:09;10.20;1.00
1476;DHT22;730;48.870;12.542;2023-11-18T09:51:42;10.20;1.00
1476;DHT22;730;48.870;12.542;2023-11-18T09:54:23;10.20;1.00
1476;DHT22;730;48.870;12.542;2023-11-18T09:57:16;10.20;1.00
1476;DHT22;730;48.870;12.542;2023-11-18T10:02:11;10.20;1.00
1476;DHT22;730;48.870;12.542;2023-11-18T10:04:38;10.20;1.00
1476;DHT22;730;48.870;12.542;2023-11-18T10:07:06;10.20;1.00
1476;DHT22;730;48.870;12.542;2023-11-18T10:09:33;10.20;1.00
1476;DHT22;730;48.870;12.542;2023-11-18T10:12:08;10.20;1.00
1476;DHT22;730;48.870;12.542;2023-11-18T10:14:35;10.20;1.00
1476;DHT22;730;48.870;12.542;2023-11-18T10:17:08;10.20;1.00
1476;DHT22;730;48.870;12.542;2023-11-18T10:19:50;10.30;1.00
1476;DHT22;730;48.870;12.542;2023-11-18T10:22:27;10.30;1.00
1476;DHT22;730;48.870;12.542;2023-11-18T10:24:55;10.40;1.00
1476;DHT22;730;48.870;12.542;2023-11-18T10:27:26;10.40;1.00
1476;DHT22;730;48.870;12.542;2023-11-18T10:30:04;10.40;1.00
1476;DHT22;730;48.870;12.542;2023-11-18T10:32:30;10.40;1.00
1476;DHT22;730;48.870;12.542;2023-11-18T10:35:01;10.40;1.00
1476;DHT22;730;48.870;12.542;2023-11-18T10:37:31;10.30;1.00
1476;DHT22;730;48.870;12.542;2023-11-18T10:39:57;10.30;1.00
1476;DHT22;730;48.870;12.542;2023-11-18T10:42:26;10.30;1.00
1476;DHT22;730;48.870;12.542;2023-11-18T10:44:57;10.20;1.00
1476;DHT22;730;48.870;12.542;2023-11-18T10:47:26;10.20;1.00
1476;DHT22;730;48.870;12.542;2023-11-18T10:49:58;10.20;1.00
1476;DHT22;730;48.870;12.542;2023-11-18T10:52:25;10.10;1.00
1476;DHT22;730;48.870;12.542;2023-11-18T10:55:01;10.00;1.00
1476;DHT22;730;48.870;12.542;2023-11-18T10:57:33;9.90;1.00
1476;DHT22;730;48.870;12.542;2023-11-18T11:00:03;9.80;1.00
1476;DHT22;730;48.870;12.542;2023-11-18T11:02:30;9.80;1.00
1476;DHT22;730;48.870;12.542;2023-11-18T11:05:01;9.80;1.00
1476;DHT22;730;48.870;12.542;2023-11-18T11:07:29;9.70;1.00
1476;DHT22;730;48.870;12.542;2023-11-18T11:09:59;9.70;1.00
1476;DHT22;730;48.870;12.542;2023-11-18T11:12:25;9.70;1.00
1476;DHT22;730;48.870;12.542;2023-11-18T11:15:01;9.70;1.00
1476;DHT22;730;48.870;12.542;2023-11-18T11:17:30;9.60;1.00
1476;DHT22;730;48.870;12.542;2023-11-18T11:20:06;9.60;1.00
1476;DHT22;730;48.870;12.542;2023-11-18T11:28:20;9.60;1.00
1476;DHT22;730;48.870;12.542;2023-11-18T11:30:58;9.70;1.00
1476;DHT22;730;48.870;12.542;2023-11-18T11:33:26;9.70;1.00
1476;DHT22;730;48.870;12.542;2023-11-18T11:35:59;9.80;1.00
1476;DHT22;730;48.870;12.542;2023-11-18T11:38:28;9.80;1.00
1476;DHT22;730;48.870;12.542;2023-11-18T11:40:54;9.80;1.00
1476;DHT22;730;48.870;12.542;2023-11-18T11:43:21;9.90;1.00
1476;DHT22;730;48.870;12.542;2023-11-18T11:45:50;10.10;1.00
1476;DHT22;730;48.870;12.542;2023-11-18T11:48:18;10.20;1.00
1476;DHT22;730;48.870;12.542;2023-11-18T11:53:35;10.30;1.00
1476;DHT22;730;48.870;12.542;2023-11-18T11:56:05;10.40;1.00
1476;DHT22;730;48.870;12.542;2023-11-18T11:58:41;10.50;1.00
1476;DHT22;730;48.870;12.542;2023-11-18T12:01:24;10.60;1.00
1476;DHT22;730;48.870;12.542;2023-11-18T12:03:56;10.80;1.00
1476;DHT22;730;48.870;12.542;2023-11-18T12:06:24;10.90;1.00
1476;DHT22;730;48.870;12.542;2023-11-18T12:08:56;10.90;1.00
1476;DHT22;730;48.870;12.542;2023-11-18T12:11:22;10.80;1.00
1476;DHT22;730;48.870;12.542;2023-11-18T12:14:04;10.70;1.00
1476;DHT22;730;48.870;12.542;2023-11-18T12:19:51;10.60;1.00
1476;DHT22;730;48.870;12.542;2023-11-18T12:22:25;10.50;1.00
1476;DHT22;730;48.870;12.542;2023-11-18T12:30:37;10.20;1.00
1476;DHT22;730;48.870;12.542;2023-11-18T12:33:06;10.20;1.00
1476;DHT22;730;48.870;12.542;2023-11-18T12:41:01;10.30;1.00
1476;DHT22;730;48.870;12.542;2023-11-18T12:46:59;10.40;1.00
1476;DHT22;730;48.870;12.542;2023-11-18T12:49:41;10.50;1.00
1476;DHT22;730;48.870;12.542;2023-11-18T12:52:11;10.60;1.00
1476;DHT22;730;48.870;12.542;2023-11-18T12:54:41;10.70;1.00
1476;DHT22;730;48.870;12.542;2023-11-18T12:57:10;10.90;1.00
1476;DHT22;730;48.870;12.542;2023-11-18T12:59:40;11.10;1.00
1476;DHT22;730;48.870;12.542;2023-11-18T13:02:10;11.20;1.00
1476;DHT22;730;48.870;12.542;2023-11-18T13:04:46;11.30;1.00
1476;DHT22;730;48.870;12.542;2023-11-18T13:07:16;11.30;1.00
1476;DHT22;730;48.870;12.542;2023-11-18T13:09:50;11.30;1.00
1476;DHT22;730;48.870;12.542;2023-11-18T13:12:19;11.20;1.00
1476;DHT22;730;48.870;12.542;2023-11-18T13:14:49;11.20;1.00
1476;DHT22;730;48.870;12.542;2023-11-18T13:17:16;11.10;1.00
1476;DHT22;730;48.870;12.542;2023-11-18T13:19:44;11.10;1.00
1476;DHT22;730;48.870;12.542;2023-11-18T13:22:12;11.00;1.00
1476;DHT22;730;48.870;12.542;2023-11-18T13:24:40;10.90;1.00
1476;DHT22;730;48.870;12.542;2023-11-18T13:27:08;10.70;1.00
1476;DHT22;730;48.870;12.542;2023-11-18T13:29:38;10.60;1.00
1476;DHT22;730;48.870;12.542;2023-11-18T13:32:15;10.50;1.00
1476;DHT22;730;48.870;12.542;2023-11-18T13:34:41;10.40;1.00
1476;DHT22;730;48.870;12.542;2023-11-18T13:37:11;10.50;1.00
1476;DHT22;730;48.870;12.542;2023-11-18T13:39:47;10.60;1.00
1476;DHT22;730;48.870;12.542;2023-11-18T13:42:22;10.80;1.00
1476;DHT22;730;48.870;12.542;2023-11-18T13:44:49;11.30;1.00
1476;DHT22;730;48.870;12.542;2023-11-18T13:47:22;12.10;1.00
1476;DHT22;730;48.870;12.542;2023-11-18T13:49:55;12.60;1.00
1476;DHT22;730;48.870;12.542;2023-11-18T13:52:25;13.10;1.00
1476;DHT22;730;48.870;12.542;2023-11-18T13:54:51;13.60;1.00
1476;DHT22;730;48.870;12.542;2023-11-18T13:57:23;14.40;1.00
1476;DHT22;730;48.870;12.542;2023-11-18T13:59:52;15.00;1.00
1476;DHT22;730;48.870;12.542;2023-11-18T14:02:20;15.20;1.00
1476;DHT22;730;48.870;12.542;2023-11-18T14:04:47;15.20;1.00
1476;DHT22;730;48.870;12.542;2023-11-18T14:07:17;15.20;1.00
1476;DHT22;730;48.870;12.542;2023-11-18T14:09:43;15.40;1.00
1476;DHT22;730;48.870;12.542;2023-11-18T14:12:12;15.70;1.00
1476;DHT22;730;48.870;12.542;2023-11-18T14:14:38;16.10;1.00
1476;DHT22;730;48.870;12.542;2023-11-18T14:17:07;16.30;1.00
1476;DHT22;730;48.870;12.542;2023-11-18T14:19:36;16.50;1.00
1476;DHT22;730;48.870;12.542;2023-11-18T14:22:03;16.70;1.00
1476;DHT22;730;48.870;12.542;2023-11-18T14:24:39;16.90;1.00
1476;DHT22;730;48.870;12.542;2023-11-18T14:27:06;17.10;1.00
1476;DHT22;730;48.870;12.542;2023-11-18T14:29:36;17.10;1.00
1476;DHT22;730;48.870;12.542;2023-11-18T14:32:03;17.00;1.00
1476;DHT22;730;48.870;12.542;2023-11-18T14:34:29;16.70;1.00
1476;DHT22;730;48.870;12.542;2023-11-18T14:36:55;16.30;1.00
1476;DHT22;730;48.870;12.542;2023-11-18T14:39:22;15.90;1.00
1476;DHT22;730;48.870;12.542;2023-11-18T14:41:50;15.50;1.00
1476;DHT22;730;48.870;12.542;2023-11-18T14:44:16;15.10;1.00
1476;DHT22;730;48.870;12.542;2023-11-18T14:46:43;14.70;1.00
1476;DHT22;730;48.870;12.542;2023-11-18T14:49:11;14.30;1.00
1476;DHT22;730;48.870;12.542;2023-11-18T14:51:37;13.80;1.00
1476;DHT22;730;48.870;12.542;2023-11-18T14:54:04;13.30;1.00
1476;DHT22;730;48.870;12.542;2023-11-18T14:56:31;12.90;1.00
1476;DHT22;730;48.870;12.542;2023-11-18T14:58:57;12.40;1.00
1476;DHT22;730;48.870;12.542;2023-11-18T15:01:23;11.90;1.00
1476;DHT22;730;48.870;12.542;2023-11-18T15:03:49;11.50;1.00
1476;DHT22;730;48.870;12.542;2023-11-18T15:06:24;11.20;1.00
1476;DHT22;730;48.870;12.542;2023-11-18T15:08:50;10.90;1.00
1476;DHT22;730;48.870;12.542;2023-11-18T15:11:25;10.50;1.00
1476;DHT22;730;48.870;12.542;2023-11-18T15:13:52;10.30;1.00
1476;DHT22;730;48.870;12.542;2023-11-18T15:16:22;10.00;1.00
1476;DHT22;730;48.870;12.542;2023-11-18T15:18:48;9.80;1.00
1476;DHT22;730;48.870;12.542;2023-11-18T15:21:17;9.60;1.00
1476;DHT22;730;48.870;12.542;2023-11-18T15:23:44;9.30;1.00
1476;DHT22;730;48.870;12.542;2023-11-18T15:26:10;9.10;1.00
1476;DHT22;730;48.870;12.542;2023-11-18T15:28:36;8.90;1.00
1476;DHT22;730;48.870;12.542;2023-11-18T15:31:03;8.70;1.00
1476;DHT22;730;48.870;12.542;2023-11-18T15:33:29;8.70;1.00
1476;DHT22;730;48.870;12.542;2023-11-18T15:35:55;8.50;1.00
1476;DHT22;730;48.870;12.542;2023-11-18T15:38:21;8.40;1.00
1476;DHT22;730;48.870;12.542;2023-11-18T15:40:48;8.30;1.00
1476;DHT22;730;48.870;12.542;2023-11-18T15:43:15;8.20;1.00
1476;DHT22;730;48.870;12.542;2023-11-18T15:45:42;8.10;1.00
1476;DHT22;730;48.870;12.542;2023-11-18T15:48:10;8.00;1.00
1476;DHT22;730;48.870;12.542;2023-11-18T15:50:36;7.90;1.00
1476;DHT22;730;48.870;12.542;2023-11-18T15:53:05;7.90;1.00
1476;DHT22;730;48.870;12.542;2023-11-18T15:55:32;7.80;1.00
1476;DHT22;730;48.870;12.542;2023-11-18T15:57:58;7.70;1.00
1476;DHT22;730;48.870;12.542;2023-11-18T16:00:26;7.60;1.00
1476;DHT22;730;48.870;12.542;2023-11-18T16:02:53;7.50;1.00
1476;DHT22;730;48.870;12.542;2023-11-18T16:05:21;7.40;1.00
1476;DHT22;730;48.870;12.542;2023-11-18T16:07:49;7.20;1.00
1476;DHT22;730;48.870;12.542;2023-11-18T16:10:23;7.10;1.00
1476;DHT22;730;48.870;12.542;2023-11-18T16:15:21;6.90;1.00
1476;DHT22;730;48.870;12.542;2023-11-18T16:17:51;6.90;1.00
1476;DHT22;730;48.870;12.542;2023-11-18T16:20:19;6.80;1.00
1476;DHT22;730;48.870;12.542;2023-11-18T16:22:46;6.80;1.00
1476;DHT22;730;48.870;12.542;2023-11-18T16:25:17;6.70;1.00
1476;DHT22;730;48.870;12.542;2023-11-18T16:27:46;6.70;1.00
1476;DHT22;730;48.870;12.542;2023-11-18T16:30:13;6.60;1.00
1476;DHT22;730;48.870;12.542;2023-11-18T16:32:40;6.60;1.00
1476;DHT22;730;48.870;12.542;2023-11-18T16:35:06;6.60;1.00
1476;DHT22;730;48.870;12.542;2023-11-18T16:37:42;6.60;1.00
1476;DHT22;730;48.870;12.542;2023-11-18T16:40:10;6.50;1.00
1476;DHT22;730;48.870;12.542;2023-11-18T16:42:41;6.50;1.00
1476;DHT22;730;48.870;12.542;2023-11-18T16:45:07;6.50;1.00
1476;DHT22;730;48.870;12.542;2023-11-18T16:47:35;6.50;1.00
1476;DHT22;730;48.870;12.542;2023-11-18T16:50:02;6.60;1.00
1476;DHT22;730;48.870;12.542;2023-11-18T16:52:30;6.60;1.00
1476;DHT22;730;48.870;12.542;2023-11-18T16:54:56;6.50;1.00
1476;DHT22;730;48.870;12.542;2023-11-18T16:57:22;6.50;1.00
1476;DHT22;730;48.870;12.542;2023-11-18T16:59:49;6.60;1.00
1476;DHT22;730;48.870;12.542;2023-11-18T17:02:18;6.50;1.00
1476;DHT22;730;48.870;12.542;2023-11-18T17:04:44;6.60;1.00
1476;DHT22;730;48.870;12.542;2023-11-18T17:07:10;6.50;1.00
1476;DHT22;730;48.870;12.542;2023-11-18T17:09:36;6.50;1.00
1476;DHT22;730;48.870;12.542;2023-11-18T17:12:02;6.50;1.00
1476;DHT22;730;48.870;12.542;2023-11-18T17:14:29;6.50;1.00
1476;DHT22;730;48.870;12.542;2023-11-18T17:16:55;6.40;1.00
1476;DHT22;730;48.870;12.542;2023-11-18T17:19:21;6.40;1.00